Time;durP1;ratioP1;P1;durP2;ratioP2;P2;SDS_P1;SDS_P2;PMS_P1;PMS_P2;Temp;Humidity;BMP_temperature;BMP_pressure;BME280_temperature;BME280_humidity;BME280_pressure;Samples;Min_cycle;Max_cycle;Signal;HPM_P1;HPM_P2
2022/04/08 00:02:16;;;;;;;9.23;0.68;;;7.30;99.90;;;;;;5053147;28;20464;-89
2022/04/08 00:04:42;;;;;;;8.70;0.90;;;7.40;99.90;;;;;;5052923;28;20036;-88
2022/04/08 00:07:07;;;;;;;7.47;0.80;;;7.40;99.90;;;;;;5053377;28;20108;-89
2022/04/08 00:09:33;;;;;;;8.30;0.88;;;7.30;99.90;;;;;;5053194;28;20496;-89
2022/04/08 00:11:59;;;;;;;9.73;0.68;;;7.30;99.90;;;;;;5053078;28;20032;-89
2022/04/08 00:14:24;;;;;;;11.27;0.80;;;7.30;99.90;;;;;;5053101;28;20036;-89
2022/04/08 00:16:50;;;;;;;5.35;0.35;;;7.30;99.90;;;;;;5052845;28;20052;-88
2022/04/08 00:19:16;;;;;;;9.65;1.00;;;7.30;99.90;;;;;;5053155;28;20120;-90
2022/04/08 00:21:41;;;;;;;8.52;0.88;;;7.30;99.90;;;;;;5053491;28;20029;-90
2022/04/08 00:24:07;;;;;;;4.38;0.28;;;7.30;99.90;;;;;;5053471;28;20172;-91
2022/04/08 00:26:33;;;;;;;8.30;0.60;;;7.20;99.90;;;;;;5053736;28;20483;-91
2022/04/08 00:28:59;;;;;;;8.80;0.80;;;7.20;99.90;;;;;;5053861;28;20411;-92
2022/04/08 00:31:25;;;;;;;8.73;1.08;;;7.20;99.90;;;;;;5053538;28;20029;-91
2022/04/08 00:33:51;;;;;;;9.80;0.73;;;7.20;99.90;;;;;;5053427;28;20021;-91
2022/04/08 00:36:16;;;;;;;7.70;0.47;;;7.20;99.90;;;;;;5056431;28;20035;-91
2022/04/08 00:38:42;;;;;;;8.70;0.80;;;7.20;99.90;;;;;;5057394;28;20396;-91
2022/04/08 00:41:07;;;;;;;5.40;0.63;;;7.10;99.90;;;;;;5056951;28;20098;-90
2022/04/08 00:43:33;;;;;;;7.70;1.08;;;7.10;99.90;;;;;;5056997;28;20472;-90
2022/04/08 00:46:00;;;;;;;7.85;0.75;;;7.00;99.90;;;;;;5056818;28;20021;-89
2022/04/08 00:48:25;;;;;;;6.25;0.60;;;7.10;99.90;;;;;;5057004;28;20029;-89
2022/04/08 00:50:51;;;;;;;9.55;0.68;;;7.10;99.90;;;;;;5056456;28;20074;-89
2022/04/08 00:53:17;;;;;;;9.77;0.52;;;7.10;99.90;;;;;;5056521;28;20039;-88
2022/04/08 00:55:42;;;;;;;8.70;1.02;;;7.10;99.90;;;;;;5056443;28;20029;-89
2022/04/08 00:58:08;;;;;;;5.72;0.70;;;7.10;99.90;;;;;;5056611;28;20476;-88
2022/04/08 01:00:36;;;;;;;9.65;0.80;;;7.10;99.90;;;;;;5056640;28;20035;-88
2022/04/08 01:03:03;;;;;;;10.25;1.05;;;7.20;99.90;;;;;;5056633;28;20025;-88
2022/04/08 01:05:29;;;;;;;7.97;1.25;;;7.20;99.90;;;;;;5056448;28;20025;-87
2022/04/08 01:07:55;;;;;;;6.25;0.70;;;7.20;99.90;;;;;;5056694;28;20025;-87
2022/04/08 01:10:21;;;;;;;8.35;0.80;;;7.20;99.90;;;;;;5056067;28;20450;-87
2022/04/08 01:12:49;;;;;;;5.40;0.68;;;7.20;99.90;;;;;;5056459;28;20017;-86
2022/04/08 01:15:16;;;;;;;10.27;0.93;;;7.20;99.90;;;;;;5056173;28;20392;-87
2022/04/08 01:17:42;;;;;;;14.55;1.50;;;7.20;99.90;;;;;;5056503;28;20045;-86
2022/04/08 01:20:08;;;;;;;9.23;0.98;;;7.20;99.90;;;;;;5056290;28;20463;-87
2022/04/08 01:22:34;;;;;;;9.25;1.13;;;7.20;99.90;;;;;;5056311;28;20032;-87
2022/04/08 01:25:07;;;;;;;15.65;1.90;;;7.10;99.90;;;;;;5056216;28;20025;-86
2022/04/08 01:27:35;;;;;;;6.47;0.80;;;7.10;99.90;;;;;;5055706;28;20017;-85
2022/04/08 01:30:01;;;;;;;10.90;0.80;;;7.00;99.90;;;;;;5056036;28;20036;-85
2022/04/08 01:32:27;;;;;;;13.68;1.40;;;7.10;99.90;;;;;;5056229;28;20419;-84
2022/04/08 01:34:53;;;;;;;10.73;1.55;;;7.10;99.90;;;;;;5055838;28;20075;-84
2022/04/08 01:37:22;;;;;;;15.77;1.70;;;7.00;99.90;;;;;;5055716;28;20070;-84
2022/04/08 01:39:47;;;;;;;13.18;1.52;;;7.00;99.90;;;;;;5055788;28;20044;-84
2022/04/08 01:42:13;;;;;;;17.38;1.98;;;7.00;99.90;;;;;;5055850;28;20373;-84
2022/04/08 01:44:39;;;;;;;9.85;1.00;;;7.00;99.90;;;;;;5055761;28;20151;-85
2022/04/08 01:47:05;;;;;;;15.48;1.77;;;7.00;99.90;;;;;;5055054;28;20472;-85
2022/04/08 01:49:31;;;;;;;12.32;1.05;;;7.00;99.90;;;;;;5055496;28;20035;-85
2022/04/08 01:51:57;;;;;;;15.38;1.80;;;7.00;99.90;;;;;;5055462;28;20127;-85
2022/04/08 01:54:22;;;;;;;12.23;1.30;;;7.00;99.90;;;;;;5055225;28;20075;-85
2022/04/08 01:56:48;;;;;;;12.70;1.40;;;7.00;99.90;;;;;;5055562;28;20025;-85
2022/04/08 01:59:14;;;;;;;13.02;1.08;;;7.00;99.90;;;;;;5055482;28;20090;-86
2022/04/08 02:01:40;;;;;;;10.70;0.90;;;6.90;99.90;;;;;;5055189;28;20021;-86
2022/04/08 02:04:05;;;;;;;9.93;1.00;;;6.90;99.90;;;;;;5055499;28;20056;-85
2022/04/08 02:06:31;;;;;;;17.50;1.52;;;6.90;99.90;;;;;;5055117;28;20021;-86
2022/04/08 02:08:57;;;;;;;10.38;1.15;;;6.90;99.90;;;;;;5055221;28;20017;-85
2022/04/08 02:11:24;;;;;;;7.15;0.88;;;6.80;99.90;;;;;;5055200;28;20524;-86
2022/04/08 02:13:49;;;;;;;11.70;1.42;;;6.80;99.90;;;;;;5055081;28;20021;-86
2022/04/08 02:16:15;;;;;;;13.70;1.60;;;6.80;99.90;;;;;;5055061;28;20044;-86
2022/04/08 02:18:42;;;;;;;11.65;1.83;;;6.80;99.90;;;;;;5055224;28;20118;-85
2022/04/08 02:21:09;;;;;;;13.02;1.58;;;6.80;99.90;;;;;;5054902;28;20059;-86
2022/04/08 02:23:36;;;;;;;17.10;1.52;;;6.80;99.90;;;;;;5054824;28;20044;-86
2022/04/08 02:26:02;;;;;;;15.05;1.15;;;6.80;99.90;;;;;;5054910;28;20472;-86
2022/04/08 02:28:27;;;;;;;10.43;1.50;;;6.80;99.90;;;;;;5054697;28;20025;-86
2022/04/08 02:30:55;;;;;;;14.20;1.38;;;6.80;99.90;;;;;;5055170;28;20116;-91
2022/04/08 02:33:20;;;;;;;12.27;1.33;;;6.80;99.90;;;;;;5054953;28;20059;-90
2022/04/08 02:35:46;;;;;;;13.02;1.23;;;6.80;99.90;;;;;;5055182;28;20438;-90
2022/04/08 02:38:11;;;;;;;17.70;1.55;;;6.80;99.90;;;;;;5054980;28;20064;-90
2022/04/08 02:40:38;;;;;;;15.95;1.73;;;6.70;99.90;;;;;;5055063;28;20075;-90
2022/04/08 02:43:03;;;;;;;12.32;1.02;;;6.70;99.90;;;;;;5054883;28;20028;-92
2022/04/08 02:45:29;;;;;;;15.25;1.70;;;6.70;99.90;;;;;;5054798;28;20028;-90
2022/04/08 02:47:55;;;;;;;18.42;1.83;;;6.70;99.90;;;;;;5054883;28;20028;-91
2022/04/08 02:50:20;;;;;;;11.07;1.17;;;6.70;99.90;;;;;;5054846;28;20052;-91
2022/04/08 02:52:46;;;;;;;13.18;1.50;;;6.70;99.90;;;;;;5054895;28;20040;-92
2022/04/08 02:55:12;;;;;;;17.73;1.63;;;6.80;99.90;;;;;;5054909;28;20527;-89
2022/04/08 02:57:44;;;;;;;14.00;1.98;;;6.70;99.90;;;;;;5054030;28;20565;-90
2022/04/08 03:00:13;;;;;;;17.20;1.73;;;6.70;99.90;;;;;;5054294;28;20476;-88
2022/04/08 03:02:38;;;;;;;13.68;1.33;;;6.60;99.90;;;;;;5054402;28;20029;-88
2022/04/08 03:05:06;;;;;;;17.25;1.55;;;6.50;99.90;;;;;;5054207;28;20487;-89
2022/04/08 03:07:32;;;;;;;10.30;1.20;;;6.50;99.90;;;;;;5054488;28;20025;-89
2022/04/08 03:09:58;;;;;;;10.07;1.33;;;6.40;99.90;;;;;;5054103;28;20065;-90
2022/04/08 03:12:23;;;;;;;13.48;1.60;;;6.40;99.90;;;;;;5054221;28;20025;-89
2022/04/08 03:14:49;;;;;;;13.40;1.40;;;6.40;99.90;;;;;;5054418;28;20103;-90
2022/04/08 03:17:14;;;;;;;15.50;1.05;;;6.30;99.90;;;;;;5053814;28;20021;-90
2022/04/08 03:19:40;;;;;;;14.98;1.38;;;6.20;99.90;;;;;;5054699;28;20064;-90
2022/04/08 03:22:08;;;;;;;13.93;1.77;;;6.20;99.90;;;;;;5054147;28;20464;-89
2022/04/08 03:24:34;;;;;;;10.10;1.10;;;6.20;99.90;;;;;;5054000;28;20021;-88
2022/04/08 03:26:59;;;;;;;11.55;0.98;;;6.20;99.90;;;;;;5053652;28;20380;-88
2022/04/08 03:29:25;;;;;;;8.20;0.90;;;6.10;99.90;;;;;;5053766;28;20029;-88
2022/04/08 03:31:50;;;;;;;9.55;1.02;;;6.20;99.90;;;;;;5053784;28;20025;-88
2022/04/08 03:34:16;;;;;;;14.75;1.60;;;6.10;99.90;;;;;;5054072;28;20036;-87
2022/04/08 03:36:42;;;;;;;9.68;1.05;;;6.10;99.90;;;;;;5053906;28;20056;-87
2022/04/08 03:39:09;;;;;;;11.15;1.10;;;6.20;99.90;;;;;;5053673;28;20454;-88
2022/04/08 03:41:34;;;;;;;11.07;1.45;;;6.20;99.90;;;;;;5053515;28;20388;-89
2022/04/08 03:44:00;;;;;;;13.13;1.30;;;6.20;99.90;;;;;;5053614;28;20021;-88
2022/04/08 03:46:26;;;;;;;8.68;0.90;;;6.30;99.90;;;;;;5053362;28;20384;-88
2022/04/08 03:48:51;;;;;;;10.02;0.95;;;6.30;99.90;;;;;;5053753;28;20017;-89
2022/04/08 03:51:17;;;;;;;8.55;0.75;;;6.30;99.90;;;;;;5053529;28;20033;-88
2022/04/08 03:53:43;;;;;;;11.63;1.55;;;6.20;99.90;;;;;;5053651;28;20380;-88
2022/04/08 03:56:08;;;;;;;9.23;0.80;;;6.20;99.90;;;;;;5053327;28;20021;-91
2022/04/08 03:58:34;;;;;;;12.40;1.73;;;6.20;99.90;;;;;;5053689;28;20032;-88
2022/04/08 04:00:59;;;;;;;9.57;1.15;;;6.20;99.90;;;;;;5053460;28;20380;-88
2022/04/08 04:03:25;;;;;;;9.15;0.98;;;6.20;99.90;;;;;;5053256;28;20094;-89
2022/04/08 04:05:50;;;;;;;6.97;0.90;;;6.20;99.90;;;;;;5052798;28;20029;-88
2022/04/08 04:08:18;;;;;;;10.70;0.88;;;6.30;99.90;;;;;;5053096;28;20017;-87
2022/04/08 04:10:45;;;;;;;4.97;0.70;;;6.20;99.90;;;;;;5052745;28;20416;-87
2022/04/08 04:13:11;;;;;;;7.88;0.80;;;6.30;99.90;;;;;;5053159;28;20431;-87
2022/04/08 04:15:36;;;;;;;9.50;1.08;;;6.40;99.90;;;;;;5052756;28;20464;-87
2022/04/08 04:18:03;;;;;;;9.32;1.00;;;6.40;99.90;;;;;;5053124;28;20107;-90
2022/04/08 04:20:29;;;;;;;9.48;0.80;;;6.40;99.90;;;;;;5053408;28;20037;-90
2022/04/08 04:22:55;;;;;;;5.95;0.85;;;6.40;99.90;;;;;;5053182;28;20423;-90
2022/04/08 04:25:20;;;;;;;7.25;0.60;;;6.40;99.90;;;;;;5053221;28;20392;-88
2022/04/08 04:27:46;;;;;;;5.60;0.70;;;6.40;99.90;;;;;;5052604;28;20021;-89
2022/04/08 04:30:12;;;;;;;8.90;1.13;;;6.40;99.90;;;;;;5052412;28;20032;-89
2022/04/08 04:32:37;;;;;;;4.28;0.50;;;6.40;99.90;;;;;;5052338;28;20116;-88
2022/04/08 04:35:06;;;;;;;8.40;1.60;;;6.40;99.90;;;;;;5051825;28;20025;-88
2022/04/08 04:37:33;;;;;;;6.20;0.55;;;6.30;99.90;;;;;;5052886;28;20039;-84
2022/04/08 04:40:00;;;;;;;5.18;0.60;;;6.30;99.90;;;;;;5053024;28;20400;-81
2022/04/08 04:42:27;;;;;;;6.88;0.60;;;6.30;99.90;;;;;;5052667;28;20025;-79
2022/04/08 04:44:54;;;;;;;6.65;0.50;;;6.20;99.90;;;;;;5053224;28;20136;-86
2022/04/08 04:47:19;;;;;;;7.10;0.80;;;6.20;99.90;;;;;;5052712;28;20392;-85
2022/04/08 04:49:45;;;;;;;6.15;0.68;;;6.30;99.90;;;;;;5052463;28;20029;-84
2022/04/08 04:52:10;;;;;;;4.15;0.50;;;6.20;99.90;;;;;;5052982;28;20020;-84
2022/04/08 04:54:36;;;;;;;6.15;0.80;;;6.20;99.90;;;;;;5052686;28;20431;-84
2022/04/08 04:57:02;;;;;;;8.10;1.52;;;6.30;99.90;;;;;;5052862;28;20033;-83
2022/04/08 04:59:27;;;;;;;7.43;0.98;;;6.20;99.90;;;;;;5052419;28;20492;-86
2022/04/08 05:01:54;;;;;;;7.30;0.80;;;6.20;99.90;;;;;;5051884;28;20021;-84
2022/04/08 05:04:19;;;;;;;8.45;0.85;;;6.20;99.90;;;;;;5059410;28;20115;-83
2022/04/08 05:06:45;;;;;;;6.00;0.70;;;6.20;99.90;;;;;;5052066;28;20152;-82
2022/04/08 05:09:11;;;;;;;7.68;0.70;;;6.20;99.90;;;;;;5051942;28;20056;-83
2022/04/08 05:11:36;;;;;;;8.60;1.17;;;6.20;99.90;;;;;;5052203;28;20409;-83
2022/04/08 05:14:02;;;;;;;9.40;1.63;;;6.30;99.90;;;;;;5052273;28;20103;-83
2022/04/08 05:16:29;;;;;;;8.68;1.08;;;6.30;99.90;;;;;;5052130;28;20487;-83
2022/04/08 05:18:55;;;;;;;12.45;1.10;;;6.30;99.90;;;;;;5051877;28;20032;-82
2022/04/08 05:21:20;;;;;;;7.70;1.05;;;6.30;99.90;;;;;;5052766;28;20040;-83
2022/04/08 05:23:46;;;;;;;10.27;1.05;;;6.40;99.90;;;;;;5055529;28;20043;-82
2022/04/08 05:26:12;;;;;;;8.38;1.00;;;6.40;99.90;;;;;;5054773;28;20028;-90
2022/04/08 05:28:37;;;;;;;10.57;1.83;;;6.50;99.90;;;;;;5056218;28;20036;-86
2022/04/08 05:31:03;;;;;;;11.68;1.40;;;6.40;99.90;;;;;;5055200;28;20072;-83
2022/04/08 05:33:29;;;;;;;10.35;1.45;;;6.40;99.90;;;;;;5055361;28;20460;-84
2022/04/08 05:35:54;;;;;;;9.38;1.20;;;6.40;99.90;;;;;;5055398;28;20027;-81
2022/04/08 05:38:20;;;;;;;11.55;2.08;;;6.50;99.90;;;;;;5054981;28;20082;-82
2022/04/08 05:40:45;;;;;;;12.13;1.60;;;6.50;99.90;;;;;;5054850;28;20108;-81
2022/04/08 05:43:11;;;;;;;7.82;1.55;;;6.50;99.90;;;;;;5054523;28;20021;-80
2022/04/08 05:45:37;;;;;;;8.30;1.33;;;6.60;99.90;;;;;;5054698;28;20440;-81
2022/04/08 05:48:06;;;;;;;10.10;1.40;;;6.50;99.90;;;;;;5054758;28;20052;-81
2022/04/08 05:50:32;;;;;;;8.90;1.48;;;6.50;99.90;;;;;;5039109;28;20036;-82
2022/04/08 05:52:58;;;;;;;8.70;1.15;;;6.60;99.90;;;;;;5055057;28;20112;-82
2022/04/08 05:55:23;;;;;;;12.18;2.10;;;6.60;99.90;;;;;;5054772;28;20025;-81
2022/04/08 05:57:53;;;;;;;9.23;1.73;;;6.70;99.90;;;;;;5054508;28;20033;-82
2022/04/08 06:00:20;;;;;;;10.40;1.42;;;6.60;99.90;;;;;;5054364;28;20472;-82
2022/04/08 06:02:47;;;;;;;11.25;1.77;;;6.70;99.90;;;;;;5054694;28;20131;-82
2022/04/08 06:05:15;;;;;;;10.35;1.65;;;6.70;99.90;;;;;;5054631;28;20041;-81
2022/04/08 06:07:49;;;;;;;7.40;1.35;;;6.70;99.90;;;;;;5054049;28;20040;-81
2022/04/08 06:10:18;;;;;;;12.00;1.73;;;6.70;99.90;;;;;;5052794;28;20064;-81
2022/04/08 06:12:51;;;;;;;12.88;1.70;;;6.80;99.90;;;;;;5043952;28;20040;-80
2022/04/08 06:15:17;;;;;;;9.35;1.60;;;6.80;99.90;;;;;;5054834;28;20040;-81
2022/04/08 06:17:43;;;;;;;10.05;2.28;;;6.80;99.90;;;;;;5043229;28;20024;-81
2022/04/08 06:20:10;;;;;;;9.00;1.58;;;6.80;99.90;;;;;;5053931;28;20573;-81
2022/04/08 06:22:39;;;;;;;10.57;1.80;;;6.80;99.90;;;;;;5053766;28;20029;-83
2022/04/08 06:25:19;;;;;;;11.77;1.50;;;6.90;99.90;;;;;;5052714;28;20033;-89
2022/04/08 06:27:54;;;;;;;5.03;1.10;;;6.90;99.90;;;;;;5043100;28;20116;-80
2022/04/08 06:30:19;;;;;;;8.15;1.75;;;7.00;99.90;;;;;;5054136;28;20025;-81
2022/04/08 06:32:45;;;;;;;9.23;1.35;;;7.00;99.90;;;;;;5054256;28;20033;-83
2022/04/08 06:35:11;;;;;;;8.05;1.48;;;7.00;99.90;;;;;;5054048;28;20033;-84
2022/04/08 06:37:37;;;;;;;8.27;1.42;;;7.10;99.90;;;;;;5054339;28;20049;-84
2022/04/08 06:40:08;;;;;;;6.93;1.67;;;7.10;99.90;;;;;;5054226;28;20065;-83
2022/04/08 06:42:34;;;;;;;8.48;1.63;;;7.10;99.90;;;;;;5039781;28;20024;-84
2022/04/08 06:45:00;;;;;;;10.30;1.73;;;7.20;99.90;;;;;;5054033;28;20033;-84
2022/04/08 06:47:26;;;;;;;11.23;1.90;;;7.10;99.90;;;;;;5053867;28;20020;-83
2022/04/08 06:49:52;;;;;;;9.18;1.70;;;7.00;99.90;;;;;;5053947;28;20101;-83
2022/04/08 06:52:17;;;;;;;11.35;1.80;;;6.90;99.90;;;;;;5053831;28;20029;-82
2022/04/08 06:54:43;;;;;;;7.85;1.52;;;7.00;99.90;;;;;;5054189;28;20047;-79
2022/04/08 06:57:09;;;;;;;11.88;2.05;;;7.10;99.90;;;;;;5053652;28;20032;-84
2022/04/08 06:59:35;;;;;;;11.13;1.55;;;7.10;99.90;;;;;;5054144;28;20033;-81
2022/04/08 07:02:01;;;;;;;8.98;2.10;;;7.20;99.90;;;;;;5048437;28;20025;-87
2022/04/08 07:04:27;;;;;;;7.15;2.00;;;7.30;99.90;;;;;;5054974;28;20032;-87
2022/04/08 07:06:53;;;;;;;9.32;1.55;;;7.30;99.90;;;;;;5054153;28;20017;-83
2022/04/08 07:09:19;;;;;;;8.43;1.40;;;7.40;99.90;;;;;;5054055;28;20049;-82
2022/04/08 07:11:46;;;;;;;7.18;1.40;;;7.40;99.90;;;;;;5053991;28;20025;-84
2022/04/08 07:14:13;;;;;;;6.25;1.30;;;7.50;99.90;;;;;;5054107;28;20074;-87
2022/04/08 07:16:38;;;;;;;9.65;1.50;;;7.60;99.90;;;;;;5054219;28;20025;-84
2022/04/08 07:19:05;;;;;;;6.15;1.30;;;7.70;99.90;;;;;;5053648;28;20051;-83
2022/04/08 07:21:30;;;;;;;9.45;1.33;;;7.70;99.90;;;;;;5054001;28;20041;-81
2022/04/08 07:23:56;;;;;;;9.82;1.27;;;7.80;99.90;;;;;;5053697;28;20123;-83
2022/04/08 07:26:21;;;;;;;10.07;1.30;;;7.80;99.50;;;;;;5053656;28;20036;-85
2022/04/08 07:28:47;;;;;;;9.63;1.35;;;7.80;99.30;;;;;;5054193;28;20025;-85
2022/04/08 07:31:13;;;;;;;9.15;1.67;;;7.80;99.20;;;;;;5053472;28;20108;-85
2022/04/08 07:33:39;;;;;;;10.15;1.75;;;7.80;99.30;;;;;;5053677;28;20428;-85
2022/04/08 07:36:05;;;;;;;12.20;1.25;;;7.90;99.30;;;;;;5053956;28;20061;-85
2022/04/08 07:38:31;;;;;;;9.77;1.40;;;7.90;99.30;;;;;;5053903;28;20340;-84
2022/04/08 07:40:59;;;;;;;10.07;1.45;;;7.90;98.90;;;;;;5053686;28;20028;-83
2022/04/08 07:43:25;;;;;;;10.57;1.67;;;7.90;99.00;;;;;;5052843;28;20468;-84
2022/04/08 07:45:50;;;;;;;7.22;1.40;;;7.90;99.00;;;;;;5053422;28;20041;-85
2022/04/08 07:48:16;;;;;;;10.95;2.05;;;8.00;99.10;;;;;;5053869;28;20021;-86
2022/04/08 07:50:42;;;;;;;10.45;1.80;;;8.00;98.80;;;;;;5054233;28;20104;-85
2022/04/08 07:53:08;;;;;;;9.38;1.75;;;8.10;99.00;;;;;;5053609;28;20036;-90
2022/04/08 07:55:34;;;;;;;8.35;1.23;;;8.10;98.70;;;;;;5054043;28;20025;-88
2022/04/08 07:58:00;;;;;;;7.70;1.20;;;8.10;98.30;;;;;;5054072;28;20463;-90
2022/04/08 08:00:27;;;;;;;6.05;1.25;;;8.20;98.20;;;;;;5053596;28;20051;-89
2022/04/08 08:02:54;;;;;;;11.40;1.02;;;8.20;98.20;;;;;;5054015;28;20119;-86
2022/04/08 08:05:23;;;;;;;8.50;1.15;;;8.20;97.80;;;;;;5052760;28;20032;-88
2022/04/08 08:07:51;;;;;;;8.57;1.10;;;8.30;98.00;;;;;;5053257;28;20436;-88
2022/04/08 08:10:22;;;;;;;7.53;1.70;;;8.30;98.10;;;;;;5053046;28;20041;-86
2022/04/08 08:12:48;;;;;;;7.22;1.20;;;8.40;97.50;;;;;;5053546;28;20023;-86
2022/04/08 08:15:15;;;;;;;9.63;1.45;;;8.40;97.40;;;;;;5053114;28;20037;-87
2022/04/08 08:17:41;;;;;;;6.70;1.60;;;8.40;96.80;;;;;;5053588;28;20021;-86
2022/04/08 08:20:08;;;;;;;4.57;1.05;;;8.40;96.40;;;;;;5053099;28;20536;-85
2022/04/08 08:22:35;;;;;;;8.40;0.85;;;8.30;96.70;;;;;;5054178;28;20163;-87
2022/04/08 08:25:00;;;;;;;9.55;1.33;;;8.30;96.90;;;;;;5053274;28;20063;-89
2022/04/08 08:27:26;;;;;;;8.20;0.68;;;8.40;97.20;;;;;;5052988;28;20049;-88
2022/04/08 08:29:52;;;;;;;10.18;1.20;;;8.40;96.30;;;;;;5052030;28;20056;-84
2022/04/08 08:32:17;;;;;;;5.85;0.80;;;8.40;96.40;;;;;;5052099;28;20021;-84
2022/04/08 08:34:43;;;;;;;10.88;1.27;;;8.40;95.90;;;;;;5050140;28;20416;-85
2022/04/08 08:37:09;;;;;;;8.77;1.40;;;8.40;95.80;;;;;;5050304;28;20052;-85
2022/04/08 08:39:34;;;;;;;5.50;0.88;;;8.40;95.90;;;;;;5050095;28;20387;-86
2022/04/08 08:42:00;;;;;;;3.95;0.60;;;8.60;96.20;;;;;;5050877;28;20387;-86
2022/04/08 08:44:26;;;;;;;7.25;0.82;;;8.60;95.80;;;;;;5051512;28;20036;-86
2022/04/08 08:46:53;;;;;;;6.13;1.23;;;8.70;96.20;;;;;;5052381;28;20032;-85
2022/04/08 08:49:20;;;;;;;11.65;1.58;;;8.70;95.10;;;;;;5052134;28;20025;-86
2022/04/08 08:51:56;;;;;;;5.50;0.88;;;8.70;94.70;;;;;;5051374;28;20029;-84
2022/04/08 08:54:22;;;;;;;5.43;0.82;;;8.70;94.80;;;;;;5049065;28;20036;-84
2022/04/08 08:56:48;;;;;;;11.15;1.20;;;8.80;94.80;;;;;;5053168;28;20032;-82
2022/04/08 08:59:15;;;;;;;7.78;1.38;;;8.80;94.70;;;;;;5054638;28;20025;-82
2022/04/08 09:01:41;;;;;;;10.98;1.25;;;8.90;94.60;;;;;;5051715;28;20043;-82
2022/04/08 09:04:06;;;;;;;10.73;1.50;;;8.80;94.50;;;;;;5054658;28;20017;-80
2022/04/08 09:06:42;;;;;;;11.35;2.08;;;8.90;94.10;;;;;;5055071;28;20029;-80
2022/04/08 09:09:10;;;;;;;6.20;1.00;;;8.90;94.80;;;;;;5054578;28;20029;-80
2022/04/08 09:11:36;;;;;;;7.65;1.00;;;9.00;95.30;;;;;;5052854;28;20056;-81
2022/04/08 09:14:04;;;;;;;4.72;1.02;;;9.00;94.60;;;;;;5055093;28;20439;-80
2022/04/08 09:16:35;;;;;;;10.10;1.15;;;9.10;94.30;;;;;;5055133;28;20029;-80
2022/04/08 09:19:12;;;;;;;6.97;0.88;;;9.10;94.30;;;;;;5054436;28;20043;-80
2022/04/08 09:21:37;;;;;;;10.63;1.20;;;9.20;94.70;;;;;;5054426;28;20025;-80
2022/04/08 09:24:07;;;;;;;6.43;1.17;;;9.30;94.50;;;;;;5054595;28;20025;-81
2022/04/08 09:26:36;;;;;;;7.13;0.90;;;9.40;94.80;;;;;;5054668;28;20032;-81
2022/04/08 09:29:04;;;;;;;11.13;2.30;;;9.50;94.20;;;;;;5054244;28;20052;-81
2022/04/08 09:31:30;;;;;;;11.38;1.63;;;9.40;93.70;;;;;;5054851;28;20424;-81
2022/04/08 09:33:55;;;;;;;6.28;1.63;;;9.40;93.80;;;;;;5055537;28;20025;-79
2022/04/08 09:36:30;;;;;;;8.75;1.20;;;9.50;93.90;;;;;;5054553;28;20021;-80
2022/04/08 09:38:56;;;;;;;9.65;1.10;;;9.50;93.90;;;;;;5054305;28;20033;-79
2022/04/08 09:41:37;;;;;;;5.47;1.05;;;9.60;93.70;;;;;;5054733;28;20031;-82
2022/04/08 09:44:02;;;;;;;9.95;1.30;;;9.60;93.60;;;;;;5053950;28;21562;-80
2022/04/08 09:46:28;;;;;;;5.82;1.05;;;9.70;93.80;;;;;;5054261;28;20032;-83
2022/04/08 09:48:54;;;;;;;8.00;1.25;;;9.60;93.10;;;;;;5053899;28;20033;-79
2022/04/08 09:51:21;;;;;;;9.88;0.90;;;9.60;93.10;;;;;;5053684;28;20037;-79
2022/04/08 09:54:09;;;;;;;6.15;1.05;;;9.70;93.60;;;;;;5053683;28;20080;-79
2022/04/08 09:56:36;;;;;;;5.82;0.88;;;9.60;92.70;;;;;;5052378;28;20031;-78
2022/04/08 09:59:14;;;;;;;7.55;1.13;;;9.60;92.50;;;;;;5053605;28;20044;-80
2022/04/08 10:01:43;;;;;;;6.03;0.93;;;9.50;92.40;;;;;;5052773;28;20032;-79
2022/04/08 10:04:09;;;;;;;9.23;0.95;;;9.60;92.60;;;;;;5051737;28;20491;-79
2022/04/08 10:06:35;;;;;;;10.50;1.55;;;9.60;92.70;;;;;;5053339;28;20059;-79
2022/04/08 10:09:03;;;;;;;5.60;1.02;;;9.60;92.60;;;;;;5053870;28;20033;-79
2022/04/08 10:11:40;;;;;;;9.63;1.48;;;9.60;92.60;;;;;;5053582;28;20033;-79
2022/04/08 10:14:25;;;;;;;4.93;1.20;;;9.70;93.00;;;;;;5054014;28;20029;-79
2022/04/08 10:16:53;;;;;;;8.75;1.45;;;9.60;92.40;;;;;;5053448;28;20112;-79
2022/04/08 10:19:21;;;;;;;9.77;1.40;;;9.60;92.40;;;;;;5053501;28;20068;-78
2022/04/08 10:21:54;;;;;;;13.15;1.75;;;9.60;92.10;;;;;;5053292;28;20021;-79
2022/04/08 10:24:28;;;;;;;10.57;1.67;;;9.50;91.90;;;;;;5053437;28;20033;-79
2022/04/08 10:26:57;;;;;;;8.77;1.48;;;9.50;92.20;;;;;;5053493;28;20041;-79
2022/04/08 10:29:23;;;;;;;13.82;1.80;;;9.50;92.50;;;;;;5053428;28;20484;-79
2022/04/08 10:31:56;;;;;;;9.02;1.80;;;9.60;92.20;;;;;;5053266;28;20025;-80
2022/04/08 10:34:23;;;;;;;7.03;1.38;;;9.60;92.10;;;;;;5053418;28;20033;-79
2022/04/08 10:36:49;;;;;;;7.13;1.50;;;9.70;92.40;;;;;;5053110;28;20025;-79
2022/04/08 10:39:16;;;;;;;7.97;1.30;;;9.60;92.10;;;;;;5052856;28;20025;-79
2022/04/08 10:41:55;;;;;;;8.45;1.60;;;9.70;92.40;;;;;;5052585;28;20511;-79
2022/04/08 10:44:34;;;;;;;10.18;1.67;;;9.70;92.40;;;;;;5052768;28;20029;-79
2022/04/08 10:47:03;;;;;;;10.82;1.45;;;9.60;92.20;;;;;;5052342;28;20120;-79
2022/04/08 10:49:29;;;;;;;11.23;2.25;;;9.70;92.60;;;;;;5053047;28;20032;-79
2022/04/08 10:51:56;;;;;;;9.77;1.92;;;9.70;92.00;;;;;;5052451;28;20021;-79
2022/04/08 10:54:34;;;;;;;5.53;1.50;;;9.70;91.80;;;;;;5052960;28;20029;-79
2022/04/08 10:56:59;;;;;;;5.30;1.20;;;9.60;91.40;;;;;;5052732;28;20060;-79
2022/04/08 10:59:26;;;;;;;10.07;1.20;;;9.60;91.10;;;;;;5052838;28;20069;-79
2022/04/08 11:01:58;;;;;;;9.55;1.73;;;9.70;91.30;;;;;;5052746;28;20036;-79
2022/04/08 11:04:26;;;;;;;8.35;1.48;;;9.70;91.20;;;;;;5052776;28;20549;-79
2022/04/08 11:06:52;;;;;;;9.77;1.60;;;9.70;91.30;;;;;;5052666;28;20029;-79
2022/04/08 11:09:19;;;;;;;7.00;1.65;;;9.70;91.60;;;;;;5052861;28;20124;-79
2022/04/08 11:11:49;;;;;;;12.18;1.70;;;9.80;91.70;;;;;;5052647;28;20055;-79
2022/04/08 11:14:16;;;;;;;8.20;1.75;;;9.80;91.80;;;;;;5052310;28;20082;-79
2022/04/08 11:16:42;;;;;;;9.38;1.83;;;9.80;91.90;;;;;;5052829;28;20099;-79
2022/04/08 11:19:10;;;;;;;5.68;1.33;;;9.90;92.00;;;;;;5050968;28;20115;-81
2022/04/08 11:21:41;;;;;;;10.73;1.92;;;10.00;92.50;;;;;;5051953;28;20174;-77
2022/04/08 11:24:15;;;;;;;12.13;1.90;;;9.90;92.20;;;;;;5051677;28;20029;-83
2022/04/08 11:26:48;;;;;;;4.13;1.33;;;9.90;91.80;;;;;;5051162;28;20041;-83
2022/04/08 11:29:22;;;;;;;11.50;2.03;;;9.90;91.80;;;;;;5052053;28;20029;-84
2022/04/08 11:31:49;;;;;;;6.07;1.65;;;9.90;91.90;;;;;;5052602;28;20095;-81
2022/04/08 11:34:15;;;;;;;8.27;1.83;;;9.80;92.10;;;;;;5051500;28;20052;-88
2022/04/08 11:36:42;;;;;;;6.88;1.75;;;9.80;91.90;;;;;;5049469;28;20042;-82
2022/04/08 11:39:08;;;;;;;7.38;1.92;;;9.80;92.90;;;;;;5051707;28;20052;-82
2022/04/08 11:41:38;;;;;;;9.15;1.77;;;9.80;92.30;;;;;;5052293;28;20395;-80
2022/04/08 11:44:05;;;;;;;14.13;2.30;;;9.90;91.90;;;;;;5052051;28;20028;-81
2022/04/08 11:46:31;;;;;;;6.38;1.60;;;9.80;91.80;;;;;;5052414;28;20083;-78
2022/04/08 11:48:56;;;;;;;6.43;1.67;;;9.90;91.90;;;;;;5050772;28;20033;-80
2022/04/08 11:51:22;;;;;;;7.80;1.52;;;9.80;92.10;;;;;;5051485;28;20036;-79
2022/04/08 11:53:49;;;;;;;11.32;1.65;;;9.80;92.00;;;;;;5050817;28;20025;-81
2022/04/08 11:56:28;;;;;;;8.35;1.63;;;9.90;92.10;;;;;;5050512;28;20410;-82
2022/04/08 11:59:02;;;;;;;7.72;1.60;;;9.90;91.60;;;;;;5048908;28;20141;-80
2022/04/08 12:01:32;;;;;;;8.82;2.00;;;9.90;91.60;;;;;;5050606;28;20032;-82
2022/04/08 12:04:03;;;;;;;11.10;1.90;;;9.90;91.60;;;;;;5050779;28;20029;-84
2022/04/08 12:06:45;;;;;;;5.80;2.20;;;10.00;92.00;;;;;;5050071;28;20063;-83
2022/04/08 12:09:16;;;;;;;4.35;1.52;;;10.00;92.10;;;;;;5049634;28;20037;-83
2022/04/08 12:11:44;;;;;;;10.48;2.05;;;9.90;91.30;;;;;;5050758;28;20036;-82
2022/04/08 12:14:10;;;;;;;8.77;1.85;;;9.80;91.60;;;;;;5049578;28;20124;-81
2022/04/08 12:16:37;;;;;;;6.25;1.67;;;9.80;92.10;;;;;;5050797;28;20100;-83
2022/04/08 12:19:04;;;;;;;6.85;1.58;;;9.90;91.90;;;;;;5050511;28;20108;-79
2022/04/08 12:21:31;;;;;;;7.68;1.35;;;9.80;91.70;;;;;;5051387;28;20511;-83
2022/04/08 12:23:58;;;;;;;8.95;1.77;;;9.90;91.60;;;;;;5046605;28;20033;-78
2022/04/08 12:26:30;;;;;;;9.55;1.92;;;9.90;91.40;;;;;;5051633;28;20191;-80
2022/04/08 12:29:08;;;;;;;8.77;1.27;;;9.90;91.40;;;;;;5051336;28;20033;-80
2022/04/08 12:31:46;;;;;;;11.65;1.92;;;10.00;91.60;;;;;;5052629;28;20056;-79
2022/04/08 12:34:14;;;;;;;6.70;1.65;;;10.00;91.80;;;;;;5055889;28;20107;-79
2022/04/08 12:36:43;;;;;;;6.45;2.00;;;10.00;91.50;;;;;;5055409;28;20025;-78
2022/04/08 12:39:11;;;;;;;7.38;1.83;;;10.00;91.70;;;;;;5055376;28;20503;-78
2022/04/08 12:41:45;;;;;;;8.45;2.00;;;10.00;91.80;;;;;;5054659;28;20079;-80
2022/04/08 12:44:12;;;;;;;7.97;1.63;;;10.10;91.90;;;;;;5055522;28;20468;-80
2022/04/08 12:46:38;;;;;;;10.90;1.95;;;10.10;91.40;;;;;;5055417;28;20112;-75
2022/04/08 12:49:05;;;;;;;6.10;1.85;;;10.10;91.10;;;;;;5055269;28;20048;-75
2022/04/08 12:51:31;;;;;;;5.65;1.60;;;10.10;91.30;;;;;;5055001;28;20027;-77
2022/04/08 12:53:58;;;;;;;5.82;1.55;;;10.10;91.50;;;;;;5055094;28;20428;-79